sensor_id;sensor_type;location;lat;lon;timestamp;P1;durP1;ratioP1;P2;durP2;ratioP2
49472;SDS011;67434;50.956;6.918;2023-02-27T00:00:21;5.68;;;1.80;;
49472;SDS011;67434;50.956;6.918;2023-02-27T00:02:47;2.40;;;1.27;;
49472;SDS011;67434;50.956;6.918;2023-02-27T00:05:14;3.50;;;1.90;;
49472;SDS011;67434;50.956;6.918;2023-02-27T00:07:40;3.53;;;1.40;;
49472;SDS011;67434;50.956;6.918;2023-02-27T00:10:07;3.08;;;1.58;;
49472;SDS011;67434;50.956;6.918;2023-02-27T00:12:33;4.25;;;1.50;;
49472;SDS011;67434;50.956;6.918;2023-02-27T00:15:03;4.28;;;1.60;;
49472;SDS011;67434;50.956;6.918;2023-02-27T00:17:33;3.15;;;1.27;;
49472;SDS011;67434;50.956;6.918;2023-02-27T00:19:58;4.07;;;1.58;;
49472;SDS011;67434;50.956;6.918;2023-02-27T00:22:24;3.38;;;1.30;;
49472;SDS011;67434;50.956;6.918;2023-02-27T00:38:15;2.95;;;0.95;;
49472;SDS011;67434;50.956;6.918;2023-02-27T00:40:41;2.55;;;1.10;;
49472;SDS011;67434;50.956;6.918;2023-02-27T00:43:06;3.35;;;1.10;;
49472;SDS011;67434;50.956;6.918;2023-02-27T00:45:32;5.07;;;1.67;;
49472;SDS011;67434;50.956;6.918;2023-02-27T00:47:57;2.53;;;1.20;;
49472;SDS011;67434;50.956;6.918;2023-02-27T00:50:22;10.65;;;1.45;;
49472;SDS011;67434;50.956;6.918;2023-02-27T00:52:48;4.00;;;1.08;;
49472;SDS011;67434;50.956;6.918;2023-02-27T00:55:13;5.50;;;1.23;;
49472;SDS011;67434;50.956;6.918;2023-02-27T00:57:38;1.45;;;0.90;;
49472;SDS011;67434;50.956;6.918;2023-02-27T01:00:05;2.22;;;1.13;;
49472;SDS011;67434;50.956;6.918;2023-02-27T01:02:32;3.05;;;1.17;;
49472;SDS011;67434;50.956;6.918;2023-02-27T01:04:58;1.90;;;1.23;;
49472;SDS011;67434;50.956;6.918;2023-02-27T01:07:24;6.60;;;1.40;;
49472;SDS011;67434;50.956;6.918;2023-02-27T01:09:49;3.28;;;1.42;;
49472;SDS011;67434;50.956;6.918;2023-02-27T01:12:14;6.35;;;1.15;;
49472;SDS011;67434;50.956;6.918;2023-02-27T01:34:48;3.33;;;1.40;;
49472;SDS011;67434;50.956;6.918;2023-02-27T01:37:13;3.17;;;1.13;;
49472;SDS011;67434;50.956;6.918;2023-02-27T01:39:38;4.88;;;1.75;;
49472;SDS011;67434;50.956;6.918;2023-02-27T01:42:05;2.55;;;1.02;;
49472;SDS011;67434;50.956;6.918;2023-02-27T01:47:26;2.83;;;1.33;;
49472;SDS011;67434;50.956;6.918;2023-02-27T01:49:52;4.50;;;1.45;;
49472;SDS011;67434;50.956;6.918;2023-02-27T01:52:17;3.75;;;1.60;;
49472;SDS011;67434;50.956;6.918;2023-02-27T01:54:43;3.88;;;1.02;;
49472;SDS011;67434;50.956;6.918;2023-02-27T01:57:08;3.13;;;1.55;;
49472;SDS011;67434;50.956;6.918;2023-02-27T01:59:36;2.78;;;1.50;;
49472;SDS011;67434;50.956;6.918;2023-02-27T02:02:08;9.10;;;1.52;;
49472;SDS011;67434;50.956;6.918;2023-02-27T02:43:19;3.13;;;1.50;;
49472;SDS011;67434;50.956;6.918;2023-02-27T02:45:56;4.60;;;1.20;;
49472;SDS011;67434;50.956;6.918;2023-02-27T03:14:54;3.45;;;1.45;;
49472;SDS011;67434;50.956;6.918;2023-02-27T03:20:18;4.75;;;1.73;;
49472;SDS011;67434;50.956;6.918;2023-02-27T03:22:48;5.18;;;1.30;;
49472;SDS011;67434;50.956;6.918;2023-02-27T03:25:19;3.30;;;1.33;;
49472;SDS011;67434;50.956;6.918;2023-02-27T03:27:48;4.72;;;1.23;;
49472;SDS011;67434;50.956;6.918;2023-02-27T03:36:10;2.13;;;1.27;;
49472;SDS011;67434;50.956;6.918;2023-02-27T03:38:49;2.72;;;1.30;;
49472;SDS011;67434;50.956;6.918;2023-02-27T03:44:33;2.05;;;1.33;;
49472;SDS011;67434;50.956;6.918;2023-02-27T03:47:14;4.47;;;1.50;;
49472;SDS011;67434;50.956;6.918;2023-02-27T03:49:40;5.05;;;1.83;;
49472;SDS011;67434;50.956;6.918;2023-02-27T03:52:05;3.88;;;1.55;;
49472;SDS011;67434;50.956;6.918;2023-02-27T03:54:33;3.95;;;1.55;;
49472;SDS011;67434;50.956;6.918;2023-02-27T03:57:04;4.15;;;1.38;;
49472;SDS011;67434;50.956;6.918;2023-02-27T03:59:31;3.92;;;1.50;;
49472;SDS011;67434;50.956;6.918;2023-02-27T04:01:58;3.15;;;1.48;;
49472;SDS011;67434;50.956;6.918;2023-02-27T04:04:26;2.22;;;1.13;;
49472;SDS011;67434;50.956;6.918;2023-02-27T04:06:55;3.47;;;1.30;;
49472;SDS011;67434;50.956;6.918;2023-02-27T04:15:53;6.03;;;1.70;;
49472;SDS011;67434;50.956;6.918;2023-02-27T04:24:08;4.35;;;1.40;;
49472;SDS011;67434;50.956;6.918;2023-02-27T04:26:36;4.43;;;1.73;;
49472;SDS011;67434;50.956;6.918;2023-02-27T04:29:35;5.30;;;1.50;;
49472;SDS011;67434;50.956;6.918;2023-02-27T04:32:08;4.32;;;1.40;;
49472;SDS011;67434;50.956;6.918;2023-02-27T04:34:42;2.92;;;1.60;;
49472;SDS011;67434;50.956;6.918;2023-02-27T04:40:06;4.38;;;1.67;;
49472;SDS011;67434;50.956;6.918;2023-02-27T04:42:39;4.15;;;1.70;;
49472;SDS011;67434;50.956;6.918;2023-02-27T04:45:10;4.55;;;1.50;;
49472;SDS011;67434;50.956;6.918;2023-02-27T04:47:42;5.30;;;1.80;;
49472;SDS011;67434;50.956;6.918;2023-02-27T04:50:20;4.03;;;2.03;;
49472;SDS011;67434;50.956;6.918;2023-02-27T04:52:51;3.50;;;1.50;;
49472;SDS011;67434;50.956;6.918;2023-02-27T04:55:22;3.40;;;1.73;;
49472;SDS011;67434;50.956;6.918;2023-02-27T05:00:38;3.33;;;1.80;;
49472;SDS011;67434;50.956;6.918;2023-02-27T05:03:10;7.50;;;2.17;;
49472;SDS011;67434;50.956;6.918;2023-02-27T05:05:40;4.80;;;1.92;;
49472;SDS011;67434;50.956;6.918;2023-02-27T05:08:15;4.15;;;2.45;;
49472;SDS011;67434;50.956;6.918;2023-02-27T05:13:48;4.20;;;1.98;;
49472;SDS011;67434;50.956;6.918;2023-02-27T05:16:20;2.85;;;1.67;;
49472;SDS011;67434;50.956;6.918;2023-02-27T05:18:51;3.05;;;2.10;;
49472;SDS011;67434;50.956;6.918;2023-02-27T05:21:28;3.42;;;2.17;;
49472;SDS011;67434;50.956;6.918;2023-02-27T05:26:59;7.70;;;1.80;;
49472;SDS011;67434;50.956;6.918;2023-02-27T05:29:52;5.78;;;2.00;;
49472;SDS011;67434;50.956;6.918;2023-02-27T05:35:02;5.28;;;2.40;;
49472;SDS011;67434;50.956;6.918;2023-02-27T05:40:23;5.45;;;2.60;;
49472;SDS011;67434;50.956;6.918;2023-02-27T05:42:56;3.67;;;2.13;;
49472;SDS011;67434;50.956;6.918;2023-02-27T05:45:29;6.70;;;2.33;;
49472;SDS011;67434;50.956;6.918;2023-02-27T05:48:02;4.60;;;2.33;;
49472;SDS011;67434;50.956;6.918;2023-02-27T05:50:32;3.22;;;2.35;;
49472;SDS011;67434;50.956;6.918;2023-02-27T05:53:01;5.47;;;2.50;;
49472;SDS011;67434;50.956;6.918;2023-02-27T06:03:06;3.95;;;2.15;;
49472;SDS011;67434;50.956;6.918;2023-02-27T06:05:31;6.13;;;3.15;;
49472;SDS011;67434;50.956;6.918;2023-02-27T06:07:58;2.88;;;2.03;;
49472;SDS011;67434;50.956;6.918;2023-02-27T06:10:24;3.63;;;2.45;;
49472;SDS011;67434;50.956;6.918;2023-02-27T06:12:50;4.43;;;2.65;;
49472;SDS011;67434;50.956;6.918;2023-02-27T06:15:15;6.78;;;2.22;;
49472;SDS011;67434;50.956;6.918;2023-02-27T06:17:42;6.28;;;2.22;;
49472;SDS011;67434;50.956;6.918;2023-02-27T06:20:08;6.57;;;2.38;;
49472;SDS011;67434;50.956;6.918;2023-02-27T06:22:34;7.20;;;2.58;;
49472;SDS011;67434;50.956;6.918;2023-02-27T06:25:00;5.45;;;2.42;;
49472;SDS011;67434;50.956;6.918;2023-02-27T06:27:26;7.75;;;2.47;;
49472;SDS011;67434;50.956;6.918;2023-02-27T06:29:52;6.80;;;2.92;;
49472;SDS011;67434;50.956;6.918;2023-02-27T06:32:17;4.80;;;3.33;;
49472;SDS011;67434;50.956;6.918;2023-02-27T06:34:43;4.47;;;3.30;;
49472;SDS011;67434;50.956;6.918;2023-02-27T06:37:08;3.17;;;2.22;;
49472;SDS011;67434;50.956;6.918;2023-02-27T06:39:34;4.60;;;2.15;;
49472;SDS011;67434;50.956;6.918;2023-02-27T06:41:59;3.92;;;2.17;;
49472;SDS011;67434;50.956;6.918;2023-02-27T06:44:24;4.65;;;2.65;;
49472;SDS011;67434;50.956;6.918;2023-02-27T06:46:51;6.65;;;2.70;;
49472;SDS011;67434;50.956;6.918;2023-02-27T06:49:16;6.78;;;2.47;;
49472;SDS011;67434;50.956;6.918;2023-02-27T06:51:43;4.22;;;2.58;;
49472;SDS011;67434;50.956;6.918;2023-02-27T06:54:08;5.00;;;2.33;;
49472;SDS011;67434;50.956;6.918;2023-02-27T06:56:34;5.80;;;2.28;;
49472;SDS011;67434;50.956;6.918;2023-02-27T06:58:59;8.55;;;2.20;;
49472;SDS011;67434;50.956;6.918;2023-02-27T07:01:24;3.35;;;2.50;;
49472;SDS011;67434;50.956;6.918;2023-02-27T07:03:50;4.93;;;2.15;;
49472;SDS011;67434;50.956;6.918;2023-02-27T07:06:16;4.65;;;2.38;;
49472;SDS011;67434;50.956;6.918;2023-02-27T07:08:41;5.82;;;2.78;;
49472;SDS011;67434;50.956;6.918;2023-02-27T07:11:06;3.35;;;2.15;;
49472;SDS011;67434;50.956;6.918;2023-02-27T07:13:32;4.53;;;2.25;;
49472;SDS011;67434;50.956;6.918;2023-02-27T07:15:57;5.75;;;1.63;;
49472;SDS011;67434;50.956;6.918;2023-02-27T07:18:23;5.25;;;2.15;;
49472;SDS011;67434;50.956;6.918;2023-02-27T07:20:49;3.17;;;1.98;;
49472;SDS011;67434;50.956;6.918;2023-02-27T07:23:16;3.28;;;2.33;;
49472;SDS011;67434;50.956;6.918;2023-02-27T07:25:41;4.45;;;1.75;;
49472;SDS011;67434;50.956;6.918;2023-02-27T07:28:07;7.22;;;3.53;;
49472;SDS011;67434;50.956;6.918;2023-02-27T07:30:32;3.55;;;1.98;;
49472;SDS011;67434;50.956;6.918;2023-02-27T07:32:58;3.10;;;1.60;;
49472;SDS011;67434;50.956;6.918;2023-02-27T07:35:23;4.55;;;1.73;;
49472;SDS011;67434;50.956;6.918;2023-02-27T07:37:49;4.45;;;2.20;;
49472;SDS011;67434;50.956;6.918;2023-02-27T07:40:14;4.63;;;1.77;;
49472;SDS011;67434;50.956;6.918;2023-02-27T07:42:40;3.33;;;1.55;;
49472;SDS011;67434;50.956;6.918;2023-02-27T07:45:06;5.78;;;1.42;;
49472;SDS011;67434;50.956;6.918;2023-02-27T07:47:32;7.60;;;1.92;;
49472;SDS011;67434;50.956;6.918;2023-02-27T07:49:58;3.55;;;2.03;;
49472;SDS011;67434;50.956;6.918;2023-02-27T07:52:24;3.70;;;1.92;;
49472;SDS011;67434;50.956;6.918;2023-02-27T07:54:49;6.63;;;1.88;;
49472;SDS011;67434;50.956;6.918;2023-02-27T07:57:14;3.78;;;1.73;;
49472;SDS011;67434;50.956;6.918;2023-02-27T07:59:40;2.78;;;1.73;;
49472;SDS011;67434;50.956;6.918;2023-02-27T08:02:05;5.82;;;1.83;;
49472;SDS011;67434;50.956;6.918;2023-02-27T08:04:31;3.25;;;1.35;;
49472;SDS011;67434;50.956;6.918;2023-02-27T08:06:56;3.78;;;1.65;;
49472;SDS011;67434;50.956;6.918;2023-02-27T08:09:22;4.15;;;1.95;;
49472;SDS011;67434;50.956;6.918;2023-02-27T08:11:48;3.65;;;1.58;;
49472;SDS011;67434;50.956;6.918;2023-02-27T08:14:13;7.35;;;1.90;;
49472;SDS011;67434;50.956;6.918;2023-02-27T08:16:38;3.95;;;1.77;;
49472;SDS011;67434;50.956;6.918;2023-02-27T08:19:04;2.35;;;1.10;;
49472;SDS011;67434;50.956;6.918;2023-02-27T08:21:30;3.65;;;1.35;;
49472;SDS011;67434;50.956;6.918;2023-02-27T08:23:56;2.45;;;1.30;;
49472;SDS011;67434;50.956;6.918;2023-02-27T08:26:22;2.75;;;1.10;;
49472;SDS011;67434;50.956;6.918;2023-02-27T08:28:48;7.45;;;1.45;;
49472;SDS011;67434;50.956;6.918;2023-02-27T08:31:13;1.88;;;0.90;;
49472;SDS011;67434;50.956;6.918;2023-02-27T08:33:39;2.85;;;1.35;;
49472;SDS011;67434;50.956;6.918;2023-02-27T08:36:04;3.53;;;1.00;;
49472;SDS011;67434;50.956;6.918;2023-02-27T08:38:29;4.40;;;0.95;;
49472;SDS011;67434;50.956;6.918;2023-02-27T08:40:55;2.05;;;1.00;;
49472;SDS011;67434;50.956;6.918;2023-02-27T08:43:21;2.53;;;1.10;;
49472;SDS011;67434;50.956;6.918;2023-02-27T08:45:48;3.60;;;1.33;;
49472;SDS011;67434;50.956;6.918;2023-02-27T08:48:14;2.85;;;1.10;;
49472;SDS011;67434;50.956;6.918;2023-02-27T08:50:43;2.53;;;1.30;;
49472;SDS011;67434;50.956;6.918;2023-02-27T08:53:09;3.70;;;0.90;;
49472;SDS011;67434;50.956;6.918;2023-02-27T08:55:34;4.13;;;1.45;;
49472;SDS011;67434;50.956;6.918;2023-02-27T08:58:00;2.17;;;1.10;;
49472;SDS011;67434;50.956;6.918;2023-02-27T09:00:25;4.47;;;1.13;;
49472;SDS011;67434;50.956;6.918;2023-02-27T09:02:51;1.83;;;0.90;;
49472;SDS011;67434;50.956;6.918;2023-02-27T09:05:17;3.25;;;1.60;;
49472;SDS011;67434;50.956;6.918;2023-02-27T09:07:43;3.22;;;1.60;;
49472;SDS011;67434;50.956;6.918;2023-02-27T09:10:08;6.18;;;2.90;;
49472;SDS011;67434;50.956;6.918;2023-02-27T09:12:36;4.57;;;0.85;;
49472;SDS011;67434;50.956;6.918;2023-02-27T09:15:02;3.72;;;0.95;;
49472;SDS011;67434;50.956;6.918;2023-02-27T09:17:29;4.45;;;1.08;;
49472;SDS011;67434;50.956;6.918;2023-02-27T09:19:55;3.00;;;1.17;;
49472;SDS011;67434;50.956;6.918;2023-02-27T09:22:21;2.67;;;1.05;;
49472;SDS011;67434;50.956;6.918;2023-02-27T09:24:46;4.25;;;1.33;;
49472;SDS011;67434;50.956;6.918;2023-02-27T09:27:15;1.77;;;1.00;;
49472;SDS011;67434;50.956;6.918;2023-02-27T09:29:43;2.17;;;1.10;;
49472;SDS011;67434;50.956;6.918;2023-02-27T09:32:09;1.80;;;0.95;;
49472;SDS011;67434;50.956;6.918;2023-02-27T09:34:34;3.08;;;1.35;;
49472;SDS011;67434;50.956;6.918;2023-02-27T09:37:00;2.17;;;1.20;;
49472;SDS011;67434;50.956;6.918;2023-02-27T09:39:25;3.75;;;1.20;;
49472;SDS011;67434;50.956;6.918;2023-02-27T09:41:54;4.13;;;1.35;;
49472;SDS011;67434;50.956;6.918;2023-02-27T09:47:02;2.05;;;1.20;;
49472;SDS011;67434;50.956;6.918;2023-02-27T09:49:30;1.65;;;1.02;;
49472;SDS011;67434;50.956;6.918;2023-02-27T09:52:01;1.80;;;0.80;;
49472;SDS011;67434;50.956;6.918;2023-02-27T09:54:28;2.25;;;0.98;;
49472;SDS011;67434;50.956;6.918;2023-02-27T09:56:57;3.92;;;1.13;;
49472;SDS011;67434;50.956;6.918;2023-02-27T10:02:01;3.85;;;1.63;;
49472;SDS011;67434;50.956;6.918;2023-02-27T10:07:17;2.00;;;1.38;;
49472;SDS011;67434;50.956;6.918;2023-02-27T10:10:23;5.57;;;1.10;;
49472;SDS011;67434;50.956;6.918;2023-02-27T10:15:56;3.17;;;1.02;;
49472;SDS011;67434;50.956;6.918;2023-02-27T10:20:55;1.20;;;0.40;;
49472;SDS011;67434;50.956;6.918;2023-02-27T10:26:13;6.80;;;0.50;;
49472;SDS011;67434;50.956;6.918;2023-02-27T10:28:44;0.45;;;0.30;;
49472;SDS011;67434;50.956;6.918;2023-02-27T10:31:17;0.63;;;0.28;;
49472;SDS011;67434;50.956;6.918;2023-02-27T10:33:48;2.63;;;0.47;;
49472;SDS011;67434;50.956;6.918;2023-02-27T10:36:15;0.65;;;0.40;;
49472;SDS011;67434;50.956;6.918;2023-02-27T10:38:44;2.00;;;0.77;;
49472;SDS011;67434;50.956;6.918;2023-02-27T10:41:14;3.53;;;0.68;;
49472;SDS011;67434;50.956;6.918;2023-02-27T10:43:41;1.52;;;0.28;;
49472;SDS011;67434;50.956;6.918;2023-02-27T10:46:18;0.77;;;0.32;;
49472;SDS011;67434;50.956;6.918;2023-02-27T10:48:57;1.38;;;0.40;;
49472;SDS011;67434;50.956;6.918;2023-02-27T10:51:25;1.27;;;0.40;;
49472;SDS011;67434;50.956;6.918;2023-02-27T10:56:49;2.78;;;0.47;;
49472;SDS011;67434;50.956;6.918;2023-02-27T11:04:24;5.22;;;0.57;;
49472;SDS011;67434;50.956;6.918;2023-02-27T11:06:53;1.05;;;0.30;;
49472;SDS011;67434;50.956;6.918;2023-02-27T11:09:24;0.73;;;0.30;;
49472;SDS011;67434;50.956;6.918;2023-02-27T11:11:54;0.70;;;0.20;;
49472;SDS011;67434;50.956;6.918;2023-02-27T11:14:57;1.20;;;0.30;;
49472;SDS011;67434;50.956;6.918;2023-02-27T11:17:32;2.25;;;0.60;;
49472;SDS011;67434;50.956;6.918;2023-02-27T11:19:59;3.42;;;1.10;;
49472;SDS011;67434;50.956;6.918;2023-02-27T11:22:27;3.35;;;1.25;;
49472;SDS011;67434;50.956;6.918;2023-02-27T11:27:47;1.40;;;0.45;;
49472;SDS011;67434;50.956;6.918;2023-02-27T11:30:47;0.88;;;0.45;;
49472;SDS011;67434;50.956;6.918;2023-02-27T11:33:09;2.42;;;0.65;;
49472;SDS011;67434;50.956;6.918;2023-02-27T11:35:42;0.70;;;0.30;;
49472;SDS011;67434;50.956;6.918;2023-02-27T11:38:19;1.17;;;0.50;;
49472;SDS011;67434;50.956;6.918;2023-02-27T11:40:58;2.65;;;1.00;;
49472;SDS011;67434;50.956;6.918;2023-02-27T11:43:30;1.20;;;0.50;;
49472;SDS011;67434;50.956;6.918;2023-02-27T11:45:59;3.45;;;1.50;;
49472;SDS011;67434;50.956;6.918;2023-02-27T11:48:45;2.33;;;0.50;;
49472;SDS011;67434;50.956;6.918;2023-02-27T11:54:00;1.42;;;0.47;;
49472;SDS011;67434;50.956;6.918;2023-02-27T11:56:36;1.25;;;0.55;;
49472;SDS011;67434;50.956;6.918;2023-02-27T12:01:37;9.80;;;2.90;;
49472;SDS011;67434;50.956;6.918;2023-02-27T12:04:19;1.60;;;0.98;;
49472;SDS011;67434;50.956;6.918;2023-02-27T12:12:25;2.03;;;0.65;;
49472;SDS011;67434;50.956;6.918;2023-02-27T12:14:58;1.50;;;0.60;;
49472;SDS011;67434;50.956;6.918;2023-02-27T12:20:17;2.72;;;0.90;;
49472;SDS011;67434;50.956;6.918;2023-02-27T12:22:59;1.38;;;0.52;;
49472;SDS011;67434;50.956;6.918;2023-02-27T12:31:06;1.38;;;0.43;;
49472;SDS011;67434;50.956;6.918;2023-02-27T12:36:03;1.90;;;0.80;;
49472;SDS011;67434;50.956;6.918;2023-02-27T12:38:28;2.15;;;0.98;;
49472;SDS011;67434;50.956;6.918;2023-02-27T12:40:58;1.77;;;0.70;;
49472;SDS011;67434;50.956;6.918;2023-02-27T12:43:47;3.15;;;0.70;;
49472;SDS011;67434;50.956;6.918;2023-02-27T12:46:23;1.85;;;0.50;;
49472;SDS011;67434;50.956;6.918;2023-02-27T12:57:41;1.40;;;0.50;;
49472;SDS011;67434;50.956;6.918;2023-02-27T13:02:49;1.48;;;0.60;;
49472;SDS011;67434;50.956;6.918;2023-02-27T13:05:33;3.20;;;1.17;;
49472;SDS011;67434;50.956;6.918;2023-02-27T13:10:55;0.65;;;0.30;;
49472;SDS011;67434;50.956;6.918;2023-02-27T13:16:12;1.10;;;0.43;;
49472;SDS011;67434;50.956;6.918;2023-02-27T13:18:55;3.33;;;1.13;;
49472;SDS011;67434;50.956;6.918;2023-02-27T13:21:27;3.25;;;0.82;;
49472;SDS011;67434;50.956;6.918;2023-02-27T13:24:05;1.30;;;0.63;;
49472;SDS011;67434;50.956;6.918;2023-02-27T13:32:30;4.63;;;0.90;;
49472;SDS011;67434;50.956;6.918;2023-02-27T13:35:16;1.42;;;0.73;;
49472;SDS011;67434;50.956;6.918;2023-02-27T13:37:56;1.95;;;0.50;;
49472;SDS011;67434;50.956;6.918;2023-02-27T13:40:35;2.45;;;0.70;;
49472;SDS011;67434;50.956;6.918;2023-02-27T13:43:10;1.17;;;0.45;;
49472;SDS011;67434;50.956;6.918;2023-02-27T13:45:59;1.50;;;0.70;;
49472;SDS011;67434;50.956;6.918;2023-02-27T13:48:35;1.90;;;0.65;;
49472;SDS011;67434;50.956;6.918;2023-02-27T13:53:30;1.60;;;0.50;;
49472;SDS011;67434;50.956;6.918;2023-02-27T13:56:16;1.33;;;0.40;;
49472;SDS011;67434;50.956;6.918;2023-02-27T13:58:46;4.75;;;0.70;;
49472;SDS011;67434;50.956;6.918;2023-02-27T14:01:16;10.13;;;0.60;;
49472;SDS011;67434;50.956;6.918;2023-02-27T14:03:53;5.15;;;0.40;;
49472;SDS011;67434;50.956;6.918;2023-02-27T14:06:23;1.13;;;0.40;;
49472;SDS011;67434;50.956;6.918;2023-02-27T14:08:53;1.08;;;0.35;;
49472;SDS011;67434;50.956;6.918;2023-02-27T14:11:29;6.88;;;0.63;;
49472;SDS011;67434;50.956;6.918;2023-02-27T14:14:00;9.35;;;0.70;;
49472;SDS011;67434;50.956;6.918;2023-02-27T14:19:48;0.40;;;0.30;;
49472;SDS011;67434;50.956;6.918;2023-02-27T14:21:48;3.15;;;0.30;;
49472;SDS011;67434;50.956;6.918;2023-02-27T14:24:31;2.97;;;0.50;;
49472;SDS011;67434;50.956;6.918;2023-02-27T14:27:02;0.95;;;0.30;;
49472;SDS011;67434;50.956;6.918;2023-02-27T14:29:30;4.65;;;1.02;;
49472;SDS011;67434;50.956;6.918;2023-02-27T14:31:58;3.78;;;1.05;;
49472;SDS011;67434;50.956;6.918;2023-02-27T14:34:26;1.45;;;0.50;;
49472;SDS011;67434;50.956;6.918;2023-02-27T14:36:57;2.40;;;0.65;;
49472;SDS011;67434;50.956;6.918;2023-02-27T14:39:35;2.13;;;0.38;;
49472;SDS011;67434;50.956;6.918;2023-02-27T14:44:54;3.55;;;1.30;;
49472;SDS011;67434;50.956;6.918;2023-02-27T14:47:36;1.42;;;0.60;;
49472;SDS011;67434;50.956;6.918;2023-02-27T14:50:03;1.35;;;0.60;;
49472;SDS011;67434;50.956;6.918;2023-02-27T14:52:39;1.67;;;0.40;;
49472;SDS011;67434;50.956;6.918;2023-02-27T14:57:54;3.55;;;1.05;;
49472;SDS011;67434;50.956;6.918;2023-02-27T15:02:57;2.75;;;0.65;;
49472;SDS011;67434;50.956;6.918;2023-02-27T15:05:26;2.65;;;0.73;;
49472;SDS011;67434;50.956;6.918;2023-02-27T15:07:55;1.90;;;0.90;;
49472;SDS011;67434;50.956;6.918;2023-02-27T15:10:22;2.65;;;0.60;;
49472;SDS011;67434;50.956;6.918;2023-02-27T15:12:54;2.38;;;0.65;;
49472;SDS011;67434;50.956;6.918;2023-02-27T15:15:20;2.22;;;0.60;;
49472;SDS011;67434;50.956;6.918;2023-02-27T15:17:46;7.70;;;1.20;;
49472;SDS011;67434;50.956;6.918;2023-02-27T15:22:52;4.60;;;1.60;;
49472;SDS011;67434;50.956;6.918;2023-02-27T15:30:48;4.38;;;1.30;;
49472;SDS011;67434;50.956;6.918;2023-02-27T15:33:15;2.38;;;0.82;;
49472;SDS011;67434;50.956;6.918;2023-02-27T15:35:42;3.95;;;0.77;;
49472;SDS011;67434;50.956;6.918;2023-02-27T15:40:54;4.93;;;2.22;;
49472;SDS011;67434;50.956;6.918;2023-02-27T15:43:21;4.82;;;1.50;;
49472;SDS011;67434;50.956;6.918;2023-02-27T15:45:48;1.63;;;0.95;;
49472;SDS011;67434;50.956;6.918;2023-02-27T15:48:18;2.15;;;0.70;;
49472;SDS011;67434;50.956;6.918;2023-02-27T15:50:47;2.30;;;0.85;;
49472;SDS011;67434;50.956;6.918;2023-02-27T15:53:20;1.60;;;0.82;;
49472;SDS011;67434;50.956;6.918;2023-02-27T15:55:51;2.85;;;0.60;;
49472;SDS011;67434;50.956;6.918;2023-02-27T15:58:24;6.30;;;1.90;;
49472;SDS011;67434;50.956;6.918;2023-02-27T16:00:54;7.18;;;2.33;;
49472;SDS011;67434;50.956;6.918;2023-02-27T16:03:25;3.55;;;1.40;;
49472;SDS011;67434;50.956;6.918;2023-02-27T16:05:55;3.50;;;1.63;;
49472;SDS011;67434;50.956;6.918;2023-02-27T16:08:21;4.35;;;1.33;;
49472;SDS011;67434;50.956;6.918;2023-02-27T16:10:47;7.70;;;2.22;;
49472;SDS011;67434;50.956;6.918;2023-02-27T16:13:30;2.60;;;1.60;;
49472;SDS011;67434;50.956;6.918;2023-02-27T16:18:45;0.98;;;0.60;;
49472;SDS011;67434;50.956;6.918;2023-02-27T16:21:19;5.80;;;0.65;;
49472;SDS011;67434;50.956;6.918;2023-02-27T16:23:49;5.57;;;1.48;;
49472;SDS011;67434;50.956;6.918;2023-02-27T16:26:31;3.28;;;1.20;;
49472;SDS011;67434;50.956;6.918;2023-02-27T16:29:01;5.65;;;1.35;;
49472;SDS011;67434;50.956;6.918;2023-02-27T16:36:37;3.92;;;1.10;;
49472;SDS011;67434;50.956;6.918;2023-02-27T16:39:03;1.00;;;0.60;;
49472;SDS011;67434;50.956;6.918;2023-02-27T16:41:30;3.90;;;1.23;;
49472;SDS011;67434;50.956;6.918;2023-02-27T16:43:55;3.28;;;0.93;;
49472;SDS011;67434;50.956;6.918;2023-02-27T16:46:20;2.03;;;1.13;;
49472;SDS011;67434;50.956;6.918;2023-02-27T16:48:50;6.05;;;2.00;;
49472;SDS011;67434;50.956;6.918;2023-02-27T16:51:19;5.28;;;1.90;;
49472;SDS011;67434;50.956;6.918;2023-02-27T16:53:48;3.22;;;1.20;;
49472;SDS011;67434;50.956;6.918;2023-02-27T16:56:18;3.05;;;1.42;;
49472;SDS011;67434;50.956;6.918;2023-02-27T16:58:44;5.25;;;2.17;;
49472;SDS011;67434;50.956;6.918;2023-02-27T17:01:11;6.22;;;2.72;;
49472;SDS011;67434;50.956;6.918;2023-02-27T17:03:40;5.05;;;2.20;;
49472;SDS011;67434;50.956;6.918;2023-02-27T17:06:06;7.57;;;2.83;;
49472;SDS011;67434;50.956;6.918;2023-02-27T17:08:33;8.02;;;3.25;;
49472;SDS011;67434;50.956;6.918;2023-02-27T17:10:59;6.30;;;2.40;;
49472;SDS011;67434;50.956;6.918;2023-02-27T17:13:25;3.53;;;1.30;;
49472;SDS011;67434;50.956;6.918;2023-02-27T17:15:51;7.18;;;2.08;;
49472;SDS011;67434;50.956;6.918;2023-02-27T17:18:16;7.95;;;3.22;;
49472;SDS011;67434;50.956;6.918;2023-02-27T17:20:51;9.07;;;3.70;;
49472;SDS011;67434;50.956;6.918;2023-02-27T17:23:20;11.27;;;3.75;;
49472;SDS011;67434;50.956;6.918;2023-02-27T17:25:45;7.65;;;2.70;;
49472;SDS011;67434;50.956;6.918;2023-02-27T17:28:10;5.43;;;2.42;;
49472;SDS011;67434;50.956;6.918;2023-02-27T17:30:37;15.00;;;4.00;;
49472;SDS011;67434;50.956;6.918;2023-02-27T17:33:02;8.43;;;3.22;;
49472;SDS011;67434;50.956;6.918;2023-02-27T17:35:27;5.30;;;2.20;;
49472;SDS011;67434;50.956;6.918;2023-02-27T17:37:54;3.47;;;1.73;;
49472;SDS011;67434;50.956;6.918;2023-02-27T17:40:20;4.97;;;1.90;;
49472;SDS011;67434;50.956;6.918;2023-02-27T17:42:45;8.13;;;2.45;;
49472;SDS011;67434;50.956;6.918;2023-02-27T17:45:11;9.73;;;3.42;;
49472;SDS011;67434;50.956;6.918;2023-02-27T17:47:36;8.68;;;2.47;;
49472;SDS011;67434;50.956;6.918;2023-02-27T17:50:02;9.05;;;2.80;;
49472;SDS011;67434;50.956;6.918;2023-02-27T17:52:28;7.88;;;2.58;;
49472;SDS011;67434;50.956;6.918;2023-02-27T17:54:53;8.88;;;2.88;;
49472;SDS011;67434;50.956;6.918;2023-02-27T17:57:19;7.38;;;3.08;;
49472;SDS011;67434;50.956;6.918;2023-02-27T17:59:47;9.20;;;3.38;;
49472;SDS011;67434;50.956;6.918;2023-02-27T18:02:13;4.43;;;2.75;;
49472;SDS011;67434;50.956;6.918;2023-02-27T18:04:39;8.73;;;4.55;;
49472;SDS011;67434;50.956;6.918;2023-02-27T18:07:05;9.05;;;4.18;;
49472;SDS011;67434;50.956;6.918;2023-02-27T18:09:31;7.43;;;2.17;;
49472;SDS011;67434;50.956;6.918;2023-02-27T18:11:56;5.03;;;2.30;;
49472;SDS011;67434;50.956;6.918;2023-02-27T18:14:22;6.05;;;2.03;;
49472;SDS011;67434;50.956;6.918;2023-02-27T18:16:48;4.75;;;1.63;;
49472;SDS011;67434;50.956;6.918;2023-02-27T18:19:14;3.63;;;2.10;;
49472;SDS011;67434;50.956;6.918;2023-02-27T18:21:40;5.75;;;2.15;;
49472;SDS011;67434;50.956;6.918;2023-02-27T18:24:11;4.75;;;1.45;;
49472;SDS011;67434;50.956;6.918;2023-02-27T18:26:38;5.53;;;3.03;;
49472;SDS011;67434;50.956;6.918;2023-02-27T18:29:05;3.42;;;1.60;;
49472;SDS011;67434;50.956;6.918;2023-02-27T18:31:51;9.40;;;3.17;;
49472;SDS011;67434;50.956;6.918;2023-02-27T18:34:19;11.85;;;3.83;;
49472;SDS011;67434;50.956;6.918;2023-02-27T18:36:45;7.30;;;2.42;;
49472;SDS011;67434;50.956;6.918;2023-02-27T18:39:11;5.93;;;2.55;;
49472;SDS011;67434;50.956;6.918;2023-02-27T18:41:51;9.80;;;3.30;;
49472;SDS011;67434;50.956;6.918;2023-02-27T18:44:17;12.82;;;5.57;;
49472;SDS011;67434;50.956;6.918;2023-02-27T18:46:52;10.82;;;4.10;;
49472;SDS011;67434;50.956;6.918;2023-02-27T18:49:17;8.57;;;3.95;;
49472;SDS011;67434;50.956;6.918;2023-02-27T18:51:42;7.30;;;3.40;;
49472;SDS011;67434;50.956;6.918;2023-02-27T18:54:11;9.65;;;3.45;;
49472;SDS011;67434;50.956;6.918;2023-02-27T18:56:40;7.30;;;2.90;;
49472;SDS011;67434;50.956;6.918;2023-02-27T18:59:06;8.75;;;3.80;;
49472;SDS011;67434;50.956;6.918;2023-02-27T19:01:50;4.03;;;2.25;;
49472;SDS011;67434;50.956;6.918;2023-02-27T19:04:16;12.43;;;4.05;;
49472;SDS011;67434;50.956;6.918;2023-02-27T19:06:52;11.68;;;4.13;;
49472;SDS011;67434;50.956;6.918;2023-02-27T19:09:18;15.85;;;5.47;;
49472;SDS011;67434;50.956;6.918;2023-02-27T19:11:44;18.65;;;5.90;;
49472;SDS011;67434;50.956;6.918;2023-02-27T19:14:11;18.98;;;7.95;;